createdAt,value
2018-05-06T00:01:56.700Z,2.20
2018-05-06T00:04:24.936Z,2.10
2018-05-06T00:06:53.923Z,2.93
2018-05-06T00:09:22.924Z,2.63
2018-05-06T00:11:51.914Z,2.70
2018-05-06T00:14:20.919Z,3.03
2018-05-06T00:16:49.140Z,2.77
2018-05-06T00:19:17.379Z,2.13
2018-05-06T00:21:45.610Z,2.57
2018-05-06T00:24:13.842Z,2.60
2018-05-06T00:26:42.059Z,2.80
2018-05-06T00:29:11.062Z,2.80
2018-05-06T00:31:40.064Z,2.70
2018-05-06T00:34:09.067Z,2.73
2018-05-06T00:36:37.301Z,3.40
2018-05-06T00:39:05.525Z,3.37
2018-05-06T00:41:33.757Z,3.33
2018-05-06T00:44:01.982Z,3.47
2018-05-06T00:46:30.305Z,3.03
2018-05-06T00:48:59.212Z,3.87
2018-05-06T00:51:28.588Z,3.87
2018-05-06T00:53:56.799Z,3.60
2018-05-06T00:56:25.440Z,3.80
2018-05-06T00:58:53.642Z,3.60
2018-05-06T01:01:21.864Z,3.43
2018-05-06T01:03:50.104Z,4.10
2018-05-06T01:06:18.328Z,3.30
2018-05-06T01:08:46.573Z,3.37
2018-05-06T01:11:14.800Z,3.33
2018-05-06T01:13:43.798Z,3.40
2018-05-06T01:16:12.795Z,3.73
2018-05-06T01:18:41.798Z,3.83
2018-05-06T01:21:10.022Z,4.00
2018-05-06T01:23:38.256Z,3.57
2018-05-06T01:26:06.476Z,3.67
2018-05-06T01:28:34.703Z,3.23
2018-05-06T01:31:02.941Z,3.37
2018-05-06T01:33:31.937Z,3.57
2018-05-06T01:36:01.212Z,3.20
2018-05-06T01:38:29.415Z,3.40
2018-05-06T01:40:57.639Z,3.53
2018-05-06T01:43:25.881Z,3.90
2018-05-06T01:45:54.106Z,3.80
2018-05-06T01:48:22.318Z,3.50
2018-05-06T01:50:50.561Z,3.40
2018-05-06T01:53:18.780Z,4.07
2018-05-06T01:55:47.306Z,3.70
2018-05-06T01:58:17.303Z,3.40
2018-05-06T02:00:45.609Z,3.97
2018-05-06T02:03:13.772Z,3.70
2018-05-06T02:05:42.010Z,3.57
2018-05-06T02:08:10.231Z,3.63
2018-05-06T02:10:39.237Z,4.20
2018-05-06T02:13:08.222Z,4.00
2018-05-06T02:15:37.222Z,3.70
2018-05-06T02:18:05.447Z,4.17
2018-05-06T02:20:33.696Z,4.13
2018-05-06T02:23:01.916Z,4.23
2018-05-06T02:25:30.154Z,4.33
2018-05-06T02:27:58.374Z,4.53
2018-05-06T02:30:27.380Z,4.30
2018-05-06T02:32:56.363Z,4.37
2018-05-06T02:35:25.387Z,4.30
2018-05-06T02:37:53.611Z,4.70
2018-05-06T02:40:21.850Z,4.40
2018-05-06T02:42:50.075Z,4.60
2018-05-06T02:45:19.088Z,4.60
2018-05-06T02:47:47.626Z,4.00
2018-05-06T02:50:15.844Z,4.70
2018-05-06T02:52:44.053Z,4.20
2018-05-06T02:55:12.291Z,4.40
2018-05-06T02:57:40.516Z,4.00
2018-05-06T03:00:08.754Z,4.37
2018-05-06T03:02:36.981Z,4.67
2018-05-06T03:05:06.001Z,4.73
2018-05-06T03:07:34.220Z,4.63
2018-05-06T03:10:02.457Z,4.60
2018-05-06T03:12:30.698Z,5.30
2018-05-06T03:14:59.688Z,4.67
2018-05-06T03:17:28.692Z,4.90
2018-05-06T03:19:57.964Z,5.17
2018-05-06T03:22:26.187Z,5.00
2018-05-06T03:24:54.414Z,4.80
2018-05-06T03:27:22.649Z,4.90
2018-05-06T03:29:50.872Z,4.70
2018-05-06T03:32:19.875Z,5.10
2018-05-06T03:34:48.863Z,4.73
2018-05-06T03:37:17.871Z,5.13
2018-05-06T03:39:46.101Z,4.90
2018-05-06T03:42:14.343Z,4.57
2018-05-06T03:44:42.556Z,4.77
2018-05-06T03:47:10.839Z,4.93
2018-05-06T03:49:39.818Z,4.80
2018-05-06T03:52:08.059Z,5.30
2018-05-06T03:54:36.283Z,4.90
2018-05-06T03:57:17.107Z,4.80
2018-05-06T03:59:57.311Z,4.80
2018-05-06T04:02:41.193Z,4.80
2018-05-06T04:05:09.411Z,5.33
2018-05-06T04:07:37.647Z,4.93
2018-05-06T04:10:06.691Z,4.80
2018-05-06T04:12:35.769Z,5.60
2018-05-06T04:15:03.938Z,5.07
2018-05-06T04:17:32.187Z,5.03
2018-05-06T04:20:00.403Z,5.13
2018-05-06T04:22:29.419Z,5.10
2018-05-06T04:24:57.638Z,4.63
2018-05-06T04:27:25.871Z,5.20
2018-05-06T04:29:54.119Z,5.50
2018-05-06T04:32:23.108Z,4.87
2018-05-06T04:34:52.119Z,5.13
2018-05-06T04:37:20.340Z,5.23
2018-05-06T04:39:48.579Z,5.03
2018-05-06T04:42:16.795Z,5.37
2018-05-06T04:44:45.030Z,5.53
2018-05-06T04:47:13.250Z,5.13
2018-05-06T04:49:42.256Z,5.40
2018-05-06T04:52:11.257Z,4.93
2018-05-06T04:54:39.502Z,4.50
2018-05-06T04:57:07.716Z,5.20
2018-05-06T04:59:35.965Z,4.70
2018-05-06T05:02:04.946Z,4.70
2018-05-06T05:04:33.951Z,5.13
2018-05-06T05:07:02.943Z,4.50
2018-05-06T05:09:32.034Z,4.67
2018-05-06T05:12:00.592Z,4.73
2018-05-06T05:14:28.811Z,4.37
2018-05-06T05:16:57.453Z,4.63
2018-05-06T05:19:26.445Z,4.50
2018-05-06T05:21:54.675Z,5.00
2018-05-06T05:24:23.015Z,4.73
2018-05-06T05:26:52.075Z,4.50
2018-05-06T05:29:20.267Z,4.47
2018-05-06T05:31:49.271Z,4.67
2018-05-06T05:34:18.261Z,4.60
2018-05-06T05:36:47.274Z,4.73
2018-05-06T05:39:15.484Z,4.57
2018-05-06T05:41:43.727Z,4.87
2018-05-06T05:44:11.952Z,4.47
2018-05-06T05:46:40.202Z,4.87
2018-05-06T05:49:08.435Z,4.50
2018-05-06T05:51:36.683Z,4.40
2018-05-06T05:54:05.684Z,4.80
2018-05-06T05:56:34.698Z,4.90
2018-05-06T05:59:03.321Z,4.77
2018-05-06T06:01:31.750Z,4.20
2018-05-06T06:03:59.913Z,4.67
2018-05-06T06:06:28.920Z,4.13
2018-05-06T06:08:57.152Z,4.40
2018-05-06T06:11:25.401Z,4.57
2018-05-06T06:13:53.631Z,4.33
2018-05-06T06:16:21.883Z,4.20
2018-05-06T06:18:51.011Z,4.23
2018-05-06T06:21:19.264Z,4.30
2018-05-06T06:23:48.541Z,4.00
2018-05-06T06:26:16.764Z,4.37
2018-05-06T06:28:45.000Z,4.20
2018-05-06T06:31:14.039Z,4.30
2018-05-06T06:33:42.262Z,4.40
2018-05-06T06:36:11.268Z,3.97
2018-05-06T06:38:40.278Z,4.00
2018-05-06T06:41:08.504Z,3.60
2018-05-06T06:43:36.753Z,3.80
2018-05-06T06:46:04.984Z,3.60
2018-05-06T06:48:33.999Z,3.93
2018-05-06T06:51:02.234Z,3.67
2018-05-06T06:53:31.253Z,3.43
2018-05-06T06:55:59.490Z,3.63
2018-05-06T06:58:27.738Z,4.00
2018-05-06T07:00:55.968Z,3.60
2018-05-06T07:03:24.215Z,3.77
2018-05-06T07:05:52.537Z,3.47
2018-05-06T07:08:20.723Z,3.50
2018-05-06T07:10:48.951Z,3.57
2018-05-06T07:13:17.979Z,3.53
2018-05-06T07:15:46.203Z,3.40
2018-05-06T07:18:14.450Z,3.17
2018-05-06T07:20:42.679Z,3.53
2018-05-06T07:23:10.928Z,3.70
2018-05-06T07:25:39.171Z,3.60
2018-05-06T07:28:07.420Z,3.30
2018-05-06T07:30:35.647Z,3.73
2018-05-06T07:33:03.904Z,3.57
2018-05-06T07:35:32.134Z,3.63
2018-05-06T07:38:00.371Z,3.40
2018-05-06T07:40:29.362Z,3.27
2018-05-06T07:42:58.451Z,3.70
2018-05-06T07:45:26.683Z,3.40
2018-05-06T07:47:54.938Z,3.47
2018-05-06T07:50:23.170Z,3.80
2018-05-06T07:52:51.423Z,3.80
2018-05-06T07:55:19.675Z,3.33
2018-05-06T07:57:47.902Z,3.40
2018-05-06T08:00:16.924Z,3.87
2018-05-06T08:02:45.244Z,3.30
2018-05-06T08:05:13.484Z,3.47
2018-05-06T08:07:41.708Z,3.20
2018-05-06T08:10:09.954Z,3.20
2018-05-06T08:12:38.191Z,3.80
2018-05-06T08:15:06.444Z,3.47
2018-05-06T08:17:35.439Z,3.20
2018-05-06T08:20:04.455Z,3.73
2018-05-06T08:22:32.763Z,3.97
2018-05-06T08:25:01.003Z,3.30
2018-05-06T08:27:29.231Z,3.67
2018-05-06T08:29:57.475Z,3.40
2018-05-06T08:32:26.467Z,3.70
2018-05-06T08:34:54.716Z,3.50
2018-05-06T08:37:22.943Z,3.37
2018-05-06T08:39:51.194Z,3.47
2018-05-06T08:42:19.430Z,3.40
2018-05-06T08:44:47.684Z,3.00
2018-05-06T08:47:16.977Z,3.10
2018-05-06T08:49:45.226Z,3.23
2018-05-06T08:52:13.460Z,2.90
2018-05-06T08:54:41.717Z,2.73
2018-05-06T08:57:09.945Z,2.70
2018-05-06T08:59:38.216Z,2.90
2018-05-06T09:02:06.428Z,3.33
2018-05-06T09:04:35.440Z,2.67
2018-05-06T09:07:04.082Z,3.10
2018-05-06T09:09:33.075Z,2.80
2018-05-06T09:12:01.312Z,2.80
2018-05-06T09:14:29.554Z,2.80
2018-05-06T09:16:57.778Z,2.47
2018-05-06T09:19:26.027Z,2.47
2018-05-06T09:21:54.255Z,2.53
2018-05-06T09:24:23.259Z,2.43
2018-05-06T09:26:51.493Z,2.77
2018-05-06T09:29:21.249Z,2.60
2018-05-06T09:31:50.259Z,2.90
2018-05-06T09:34:18.639Z,2.90
2018-05-06T09:36:46.872Z,2.70
2018-05-06T09:39:15.888Z,3.23
2018-05-06T09:41:44.113Z,2.90
2018-05-06T09:44:12.374Z,2.87
2018-05-06T09:46:41.373Z,2.87
2018-05-06T09:49:09.590Z,2.50
2018-05-06T09:51:37.843Z,2.50
2018-05-06T09:54:06.075Z,2.53
2018-05-06T09:56:34.322Z,2.57
2018-05-06T09:59:02.556Z,2.60
2018-05-06T10:01:30.812Z,2.30
2018-05-06T10:03:59.030Z,2.20
2018-05-06T10:06:27.291Z,2.20
2018-05-06T10:08:56.278Z,2.20
2018-05-06T10:11:24.531Z,2.43
2018-05-06T10:13:52.759Z,2.27
2018-05-06T10:16:21.018Z,2.60
2018-05-06T10:18:50.011Z,2.20
2018-05-06T10:21:18.263Z,2.60
2018-05-06T10:23:46.494Z,2.30
2018-05-06T10:26:14.803Z,2.80
2018-05-06T10:28:42.972Z,2.40
2018-05-06T10:31:11.221Z,2.47
2018-05-06T10:33:39.456Z,2.20
2018-05-06T10:36:08.522Z,2.47
2018-05-06T10:38:36.752Z,2.30
2018-05-06T10:41:05.007Z,2.50
2018-05-06T10:43:33.233Z,2.57
2018-05-06T10:46:01.497Z,2.83
2018-05-06T10:48:29.711Z,2.50
2018-05-06T10:50:58.726Z,2.40
2018-05-06T10:53:27.723Z,2.50
2018-05-06T10:55:55.971Z,2.50
2018-05-06T10:58:25.014Z,2.37
2018-05-06T11:00:53.224Z,2.40
2018-05-06T11:03:22.215Z,2.73
2018-05-06T11:05:51.239Z,2.43
2018-05-06T11:08:19.467Z,2.50
2018-05-06T11:10:47.707Z,2.50
2018-05-06T11:13:15.941Z,2.63
2018-05-06T11:15:44.969Z,3.07
2018-05-06T11:18:13.183Z,2.77
2018-05-06T11:20:41.426Z,2.60
2018-05-06T11:23:09.656Z,2.33
2018-05-06T11:25:37.905Z,2.30
2018-05-06T11:28:06.151Z,2.40
2018-05-06T11:30:34.450Z,2.50
2018-05-06T11:33:02.662Z,2.73
2018-05-06T11:35:30.923Z,2.50
2018-05-06T11:37:59.177Z,2.50
2018-05-06T11:40:27.410Z,2.23
2018-05-06T11:42:55.651Z,2.57
2018-05-06T11:45:23.878Z,2.00
2018-05-06T11:47:52.130Z,2.23
2018-05-06T11:50:20.375Z,2.20
2018-05-06T11:52:48.648Z,2.20
2018-05-06T11:55:17.716Z,1.97
2018-05-06T11:57:46.276Z,1.90
2018-05-06T12:00:14.499Z,2.00
2018-05-06T12:02:43.917Z,1.90
2018-05-06T12:05:12.868Z,2.00
2018-05-06T12:07:41.880Z,2.00
2018-05-06T12:10:10.108Z,1.80
2018-05-06T12:12:38.346Z,2.10
2018-05-06T12:15:06.572Z,1.77
2018-05-06T12:17:34.858Z,1.70
2018-05-06T12:20:03.863Z,1.80
2018-05-06T12:22:32.111Z,1.80
2018-05-06T12:25:00.343Z,1.80
2018-05-06T12:27:28.588Z,1.70
2018-05-06T12:29:56.815Z,1.80
2018-05-06T12:32:25.068Z,1.73
2018-05-06T12:34:53.296Z,1.90
2018-05-06T12:37:24.470Z,1.90
2018-05-06T12:39:52.709Z,1.70
2018-05-06T12:42:21.777Z,1.70
2018-05-06T12:44:49.980Z,1.77
2018-05-06T12:47:18.999Z,1.70
2018-05-06T12:49:47.226Z,1.73
2018-05-06T12:52:15.474Z,2.10
2018-05-06T12:54:43.702Z,1.67
2018-05-06T12:57:11.996Z,1.80
2018-05-06T12:59:40.948Z,1.53
2018-05-06T13:02:09.963Z,2.00
2018-05-06T13:04:38.193Z,1.60
2018-05-06T13:07:06.448Z,1.90
2018-05-06T13:09:34.679Z,1.70
2018-05-06T13:12:02.927Z,2.10
2018-05-06T13:14:31.147Z,2.07
2018-05-06T13:16:59.406Z,2.47
2018-05-06T13:19:27.735Z,2.00
2018-05-06T13:21:55.963Z,2.10
2018-05-06T13:24:24.285Z,2.05
2018-05-06T13:26:53.215Z,2.10
2018-05-06T13:29:21.454Z,1.97
2018-05-06T13:31:49.694Z,2.13
2018-05-06T13:34:17.954Z,1.92
2018-05-06T13:36:46.692Z,2.33
2018-05-06T13:39:15.273Z,1.80
2018-05-06T13:41:43.759Z,1.98
2018-05-06T13:44:12.778Z,1.90
2018-05-06T13:46:41.024Z,1.70
2018-05-06T13:49:09.258Z,1.95
2018-05-06T13:51:37.492Z,1.70
2018-05-06T13:54:06.511Z,1.70
2018-05-06T13:56:34.747Z,1.90
2018-05-06T13:59:03.758Z,1.90
2018-05-06T14:01:32.047Z,2.00
2018-05-06T14:04:00.232Z,1.52
2018-05-06T14:06:28.451Z,2.28
2018-05-06T14:08:57.475Z,1.70
2018-05-06T14:11:25.714Z,1.75
2018-05-06T14:13:53.968Z,1.70
2018-05-06T14:16:22.198Z,1.60
2018-05-06T14:18:50.455Z,1.87
2018-05-06T14:21:19.451Z,1.90
2018-05-06T14:23:47.697Z,2.10
2018-05-06T14:26:15.931Z,1.90
2018-05-06T14:28:44.182Z,1.93
2018-05-06T14:31:12.407Z,1.87
2018-05-06T14:33:40.659Z,1.77
2018-05-06T14:36:08.891Z,1.90
2018-05-06T14:38:37.143Z,2.00
2018-05-06T14:41:05.371Z,1.93
2018-05-06T14:43:33.996Z,1.90
2018-05-06T14:46:02.196Z,1.77
2018-05-06T14:48:30.521Z,1.90
2018-05-06T14:50:59.443Z,1.90
2018-05-06T14:53:28.463Z,2.00
2018-05-06T14:55:56.792Z,1.83
2018-05-06T14:58:24.951Z,2.03
2018-05-06T15:00:53.174Z,1.83
2018-05-06T15:03:21.431Z,1.87
2018-05-06T15:05:50.437Z,1.73
2018-05-06T15:08:19.455Z,1.73
2018-05-06T15:10:47.687Z,2.10
2018-05-06T15:13:16.707Z,1.90
2018-05-06T15:18:18.139Z,1.90
2018-05-06T15:20:46.369Z,1.63
2018-05-06T15:23:14.598Z,1.87
2018-05-06T15:25:43.629Z,1.90
2018-05-06T15:28:11.850Z,1.73
2018-05-06T15:30:40.111Z,2.03
2018-05-06T15:33:08.338Z,1.87
2018-05-06T15:35:36.582Z,2.00
2018-05-06T15:38:05.579Z,2.00
2018-05-06T15:40:34.590Z,1.80
2018-05-06T15:43:02.825Z,2.00
2018-05-06T15:45:31.072Z,1.90
2018-05-06T15:47:59.299Z,1.77
2018-05-06T15:50:28.322Z,1.80
2018-05-06T15:52:56.536Z,2.00
2018-05-06T15:55:24.780Z,1.90
2018-05-06T15:57:53.011Z,1.77
2018-05-06T16:00:22.018Z,2.17
2018-05-06T16:03:02.540Z,1.97
2018-05-06T16:05:30.791Z,1.90
2018-05-06T16:07:59.015Z,1.80
2018-05-06T16:10:27.271Z,1.80
2018-05-06T16:12:56.565Z,2.13
2018-05-06T16:15:24.807Z,1.93
2018-05-06T16:17:53.038Z,1.87
2018-05-06T16:20:21.282Z,1.80
2018-05-06T16:22:49.865Z,2.00
2018-05-06T16:25:18.098Z,1.83
2018-05-06T16:27:46.321Z,1.67
2018-05-06T16:30:15.339Z,2.00
2018-05-06T16:32:43.577Z,2.30
2018-05-06T16:35:11.848Z,2.03
2018-05-06T16:37:40.077Z,1.90
2018-05-06T16:40:08.343Z,1.80
2018-05-06T16:42:36.804Z,1.87
2018-05-06T16:45:05.811Z,1.70
2018-05-06T16:47:34.035Z,1.70
2018-05-06T16:50:02.288Z,1.80
2018-05-06T16:52:30.533Z,1.90
2018-05-06T16:54:58.783Z,1.47
2018-05-06T16:57:27.923Z,1.80
2018-05-06T16:59:56.035Z,1.63
2018-05-06T17:02:24.260Z,1.90
2018-05-06T17:04:52.666Z,1.70
2018-05-06T17:07:21.339Z,1.70
2018-05-06T17:09:49.645Z,1.40
2018-05-06T17:12:19.194Z,2.00
2018-05-06T17:14:47.446Z,1.67
2018-05-06T17:17:15.793Z,1.90
2018-05-06T17:19:44.436Z,1.67
2018-05-06T17:22:12.936Z,1.77
2018-05-06T17:24:41.554Z,1.60
2018-05-06T17:27:09.888Z,1.90
2018-05-06T17:29:38.126Z,1.70
2018-05-06T17:32:06.728Z,1.83
2018-05-06T17:34:34.955Z,1.80
2018-05-06T17:37:03.203Z,1.73
2018-05-06T17:39:31.445Z,1.70
2018-05-06T17:41:59.691Z,1.60
2018-05-06T17:44:28.938Z,1.60
2018-05-06T17:46:57.184Z,1.67
2018-05-06T17:49:25.500Z,1.90
2018-05-06T17:51:53.749Z,1.73
2018-05-06T17:54:21.976Z,1.90
2018-05-06T17:56:51.361Z,1.83
2018-05-06T17:59:19.554Z,1.53
2018-05-06T18:01:48.578Z,1.97
2018-05-06T18:04:16.807Z,1.77
2018-05-06T18:06:45.052Z,1.53
2018-05-06T18:09:13.287Z,1.80
2018-05-06T18:11:41.537Z,2.07
2018-05-06T18:14:10.532Z,1.80
2018-05-06T18:16:39.546Z,1.73
2018-05-06T18:19:07.783Z,2.00
2018-05-06T18:21:36.036Z,1.97
2018-05-06T18:24:04.295Z,1.80
2018-05-06T18:26:32.548Z,1.80
2018-05-06T18:29:01.563Z,2.13
2018-05-06T18:31:29.806Z,1.90
2018-05-06T18:33:58.026Z,2.00
2018-05-06T18:36:26.274Z,1.97
2018-05-06T18:38:54.504Z,1.90
2018-05-06T18:41:23.523Z,2.03
2018-05-06T18:43:51.760Z,1.90
2018-05-06T18:46:20.218Z,2.00
2018-05-06T18:48:49.203Z,1.60
2018-05-06T18:51:17.464Z,2.10
2018-05-06T18:53:45.692Z,2.20
2018-05-06T18:56:14.706Z,1.93
2018-05-06T18:58:42.947Z,2.13
2018-05-06T19:01:11.192Z,2.40
2018-05-06T19:03:39.792Z,2.00
2018-05-06T19:06:08.009Z,1.87
2018-05-06T19:08:36.243Z,2.00
2018-05-06T19:11:04.486Z,1.90
2018-05-06T19:13:33.145Z,2.10
2018-05-06T19:16:01.394Z,2.20
2018-05-06T19:18:30.029Z,2.10
2018-05-06T19:20:58.235Z,2.00
2018-05-06T19:23:26.895Z,2.10
2018-05-06T19:25:55.883Z,2.17
2018-05-06T19:28:24.138Z,2.30
2018-05-06T19:30:52.359Z,2.30
2018-05-06T19:33:21.370Z,2.40
2018-05-06T19:35:49.605Z,2.30
2018-05-06T19:38:17.846Z,2.40
2018-05-06T19:40:46.084Z,2.53
2018-05-06T19:43:15.105Z,2.10
2018-05-06T19:45:43.343Z,2.60
2018-05-06T19:48:12.355Z,2.23
2018-05-06T19:50:40.575Z,2.07
2018-05-06T19:53:08.817Z,2.50
2018-05-06T19:55:37.049Z,2.17
2018-05-06T19:58:05.292Z,2.63
2018-05-06T20:00:33.521Z,2.40
2018-05-06T20:03:01.778Z,2.20
2018-05-06T20:05:30.762Z,2.30
2018-05-06T20:07:59.775Z,2.30
2018-05-06T20:10:27.999Z,2.60
2018-05-06T20:12:56.314Z,2.60
2018-05-06T20:15:24.504Z,2.73
2018-05-06T20:17:53.503Z,2.50
2018-05-06T20:20:21.732Z,2.40
2018-05-06T20:22:49.988Z,2.20
2018-05-06T20:25:18.440Z,2.53
2018-05-06T20:27:46.685Z,2.47
2018-05-06T20:30:15.681Z,2.60
2018-05-06T20:32:43.931Z,2.37
2018-05-06T20:35:12.155Z,2.70
2018-05-06T20:37:40.399Z,2.90
2018-05-06T20:40:09.394Z,3.10
2018-05-06T20:42:37.640Z,3.60
2018-05-06T20:45:05.875Z,3.33
2018-05-06T20:47:34.115Z,3.17
2018-05-06T20:50:02.390Z,3.30
2018-05-06T20:52:30.599Z,3.30
2018-05-06T20:54:58.827Z,3.13
2018-05-06T20:57:27.855Z,3.30
2018-05-06T20:59:56.097Z,3.00
2018-05-06T21:02:25.087Z,3.27
2018-05-06T21:05:00.035Z,3.20
2018-05-06T21:07:28.265Z,3.17
2018-05-06T21:09:56.508Z,2.80
2018-05-06T21:12:24.739Z,2.83
2018-05-06T21:14:52.991Z,2.90
2018-05-06T21:17:21.227Z,3.00
2018-05-06T21:19:49.514Z,3.00
2018-05-06T21:22:17.734Z,3.10
2018-05-06T21:24:46.744Z,3.23
2018-05-06T21:27:15.293Z,3.47
2018-05-06T21:29:43.570Z,3.57
2018-05-06T21:32:11.762Z,3.60
2018-05-06T21:34:40.007Z,3.70
2018-05-06T21:37:08.298Z,3.30
2018-05-06T21:39:36.575Z,3.50
2018-05-06T21:42:04.759Z,3.97
2018-05-06T21:44:33.007Z,3.20
2018-05-06T21:47:01.234Z,3.47
2018-05-06T21:49:29.486Z,3.70
2018-05-06T21:51:57.702Z,3.60
2018-05-06T21:54:26.005Z,3.50
2018-05-06T21:56:54.179Z,3.70
2018-05-06T21:59:23.192Z,3.67
2018-05-06T22:01:51.415Z,3.30
2018-05-06T22:04:19.666Z,3.30
2018-05-06T22:06:47.891Z,3.30
2018-05-06T22:09:16.887Z,3.80
2018-05-06T22:11:46.016Z,4.00
2018-05-06T22:14:14.234Z,3.80
2018-05-06T22:16:42.476Z,3.40
2018-05-06T22:19:10.714Z,3.50
2018-05-06T22:21:39.722Z,3.80
2018-05-06T22:24:07.947Z,3.63
2018-05-06T22:26:36.196Z,4.00
2018-05-06T22:29:04.427Z,3.63
2018-05-06T22:31:33.806Z,3.40
2018-05-06T22:34:02.011Z,3.70
2018-05-06T22:36:30.262Z,3.67
2018-05-06T22:38:59.264Z,3.50
2018-05-06T22:41:28.275Z,3.97
2018-05-06T22:43:56.503Z,4.00
2018-05-06T22:46:24.757Z,3.60
2018-05-06T22:48:52.978Z,3.60
2018-05-06T22:51:21.229Z,3.43
2018-05-06T22:53:49.464Z,3.57
2018-05-06T22:56:17.715Z,3.30
2018-05-06T22:58:45.945Z,3.30
2018-05-06T23:01:14.192Z,3.30
2018-05-06T23:03:42.463Z,3.30
2018-05-06T23:06:10.706Z,3.50
2018-05-06T23:08:38.938Z,3.73
2018-05-06T23:11:07.232Z,4.00
2018-05-06T23:13:35.416Z,3.80
2018-05-06T23:16:04.426Z,3.57
2018-05-06T23:18:32.674Z,3.50
2018-05-06T23:21:01.673Z,3.70
2018-05-06T23:23:30.667Z,3.67
2018-05-06T23:25:58.907Z,3.80
2018-05-06T23:28:27.152Z,3.77
2018-05-06T23:30:55.375Z,3.63
2018-05-06T23:33:24.398Z,3.90
2018-05-06T23:35:52.623Z,4.00
2018-05-06T23:38:20.865Z,3.37
2018-05-06T23:40:49.091Z,3.77
2018-05-06T23:43:18.108Z,3.80
2018-05-06T23:45:46.333Z,3.80
2018-05-06T23:48:14.583Z,4.07
2018-05-06T23:50:43.580Z,3.77
2018-05-06T23:53:11.831Z,3.97
2018-05-06T23:55:40.067Z,4.13
2018-05-06T23:58:09.080Z,3.87
